Baldwin, New York
Current Conditions -  °F | °C
As of 4:51 AM on Saturday 22 Nov 2014 (Local Time) from KJFK Reporting Station
Clear Clear  
Wind Chill: 21°   Ceiling: Unl
Heat Index: 28°   Visibility: 10mi
Dew Point: 14°   Wind: 7mph
Humidity: 56%   Direction: 250°WSW
Pressure: 30.5"   Gusts: NA
Location:  40.66°N, 73.61°W
Report Text: KJFK 220951Z 25006KT 10SM CLR M02/M10 A3050 RMK AO2 SLP327 T10221100
Loading
Personal Weather Stations






























Interactive Weather Map New forecast layout! Learn more

10-Day Weather Forecast

Advertisements
Track Severe Weather on mobile